createdAt,value
2019-01-11T00:00:31.797Z,1017.38
2019-01-11T00:01:31.805Z,1017.41
2019-01-11T00:02:31.814Z,1017.36
2019-01-11T00:03:31.825Z,1017.33
2019-01-11T00:04:31.837Z,1017.30
2019-01-11T00:05:31.847Z,1017.30
2019-01-11T00:06:31.858Z,1017.28
2019-01-11T00:07:31.865Z,1017.29
2019-01-11T00:08:31.875Z,1017.31
2019-01-11T00:09:31.889Z,1017.28
2019-01-11T00:10:31.897Z,1017.28
2019-01-11T00:11:31.910Z,1017.28
2019-01-11T00:12:31.920Z,1017.32
2019-01-11T00:13:31.931Z,1017.32
2019-01-11T00:14:31.939Z,1017.34
2019-01-11T00:15:31.950Z,1017.34
2019-01-11T00:16:31.962Z,1017.30
2019-01-11T00:17:31.972Z,1017.27
2019-01-11T00:18:31.982Z,1017.26
2019-01-11T00:19:31.992Z,1017.26
2019-01-11T00:20:32.004Z,1017.28
2019-01-11T00:21:32.014Z,1017.26
2019-01-11T00:22:32.024Z,1017.23
2019-01-11T00:23:32.034Z,1017.22
2019-01-11T00:24:32.049Z,1017.22
2019-01-11T00:25:32.057Z,1017.22
2019-01-11T00:26:32.066Z,1017.19
2019-01-11T00:27:32.076Z,1017.22
2019-01-11T00:28:32.086Z,1017.19
2019-01-11T00:29:32.097Z,1017.17
2019-01-11T00:30:32.105Z,1017.13
2019-01-11T00:31:32.118Z,1017.17
2019-01-11T00:32:32.131Z,1017.18
2019-01-11T00:33:32.140Z,1017.21
2019-01-11T00:34:32.150Z,1017.14
2019-01-11T00:35:32.159Z,1017.15
2019-01-11T00:36:32.172Z,1017.12
2019-01-11T00:37:32.180Z,1017.11
2019-01-11T00:38:32.191Z,1017.09
2019-01-11T00:39:32.202Z,1017.11
2019-01-11T00:40:32.216Z,1017.11
2019-01-11T00:41:32.225Z,1017.08
2019-01-11T00:42:32.238Z,1017.11
2019-01-11T00:43:32.244Z,1017.14
2019-01-11T00:44:32.264Z,1017.10
2019-01-11T00:45:32.267Z,1017.16
2019-01-11T00:46:32.275Z,1017.09
2019-01-11T00:47:32.286Z,1017.11
2019-01-11T00:48:32.296Z,1017.06
2019-01-11T00:49:32.306Z,1017.12
2019-01-11T00:50:32.317Z,1017.09
2019-01-11T00:51:32.326Z,1017.11
2019-01-11T00:52:32.347Z,1017.08
2019-01-11T00:53:32.351Z,1017.10
2019-01-11T00:54:32.359Z,1017.04
2019-01-11T00:55:32.370Z,1017.06
2019-01-11T00:56:32.382Z,1016.98
2019-01-11T00:57:32.391Z,1017.00
2019-01-11T00:58:32.399Z,1017.00
2019-01-11T00:59:32.410Z,1016.95
2019-01-11T01:00:32.421Z,1016.92
2019-01-11T01:01:32.434Z,1016.94
2019-01-11T01:02:32.443Z,1016.92
2019-01-11T01:03:32.453Z,1016.99
2019-01-11T01:04:32.462Z,1016.99
2019-01-11T01:05:32.474Z,1016.99
2019-01-11T01:06:32.484Z,1016.94
2019-01-11T01:07:32.497Z,1016.93
2019-01-11T01:08:32.506Z,1016.91
2019-01-11T01:09:32.517Z,1016.91
2019-01-11T01:10:32.525Z,1016.89
2019-01-11T01:11:32.537Z,1016.93
2019-01-11T01:12:32.546Z,1016.90
2019-01-11T01:13:32.561Z,1016.89
2019-01-11T01:14:32.571Z,1016.90
2019-01-11T01:15:32.581Z,1016.88
2019-01-11T01:16:32.590Z,1016.82
2019-01-11T01:17:32.600Z,1016.79
2019-01-11T01:18:32.612Z,1016.80
2019-01-11T01:19:32.629Z,1016.80
2019-01-11T01:20:32.632Z,1016.79
2019-01-11T01:21:32.644Z,1016.80
2019-01-11T01:22:32.651Z,1016.83
2019-01-11T01:23:32.661Z,1016.81
2019-01-11T01:24:32.676Z,1016.80
2019-01-11T01:25:32.684Z,1016.78
2019-01-11T01:26:32.698Z,1016.81
2019-01-11T01:27:32.705Z,1016.84
2019-01-11T01:28:32.718Z,1016.88
2019-01-11T01:29:32.726Z,1016.86
2019-01-11T01:30:32.735Z,1016.86
2019-01-11T01:31:32.749Z,1016.84
2019-01-11T01:32:32.760Z,1016.83
2019-01-11T01:33:32.770Z,1016.86
2019-01-11T01:34:32.781Z,1016.85
2019-01-11T01:35:32.789Z,1016.84
2019-01-11T01:36:32.801Z,1016.86
2019-01-11T01:37:32.819Z,1016.83
2019-01-11T01:38:32.899Z,1016.83
2019-01-11T01:39:32.899Z,1016.80
2019-01-11T01:40:32.892Z,1016.78
2019-01-11T01:41:32.900Z,1016.82
2019-01-11T01:42:32.900Z,1016.78
2019-01-11T01:43:32.899Z,1016.78
2019-01-11T01:44:32.971Z,1016.78
2019-01-11T01:45:32.970Z,1016.71
2019-01-11T01:46:32.959Z,1016.72
2019-01-11T01:47:32.947Z,1016.74
2019-01-11T01:48:32.952Z,1016.70
2019-01-11T01:49:32.979Z,1016.70
2019-01-11T01:50:32.971Z,1016.73
2019-01-11T01:51:32.961Z,1016.72
2019-01-11T01:52:32.966Z,1016.67
2019-01-11T01:53:32.981Z,1016.68
2019-01-11T01:54:32.990Z,1016.74
2019-01-11T01:55:32.999Z,1016.69
2019-01-11T01:56:33.011Z,1016.72
2019-01-11T01:57:33.020Z,1016.71
2019-01-11T01:58:33.032Z,1016.67
2019-01-11T01:59:33.042Z,1016.66
2019-01-11T02:00:33.052Z,1016.66
2019-01-11T02:01:33.063Z,1016.68
2019-01-11T02:02:33.076Z,1016.64
2019-01-11T02:03:33.083Z,1016.60
2019-01-11T02:04:33.098Z,1016.61
2019-01-11T02:05:33.105Z,1016.56
2019-01-11T02:06:33.115Z,1016.52
2019-01-11T02:07:33.124Z,1016.56
2019-01-11T02:08:33.135Z,1016.54
2019-01-11T02:09:33.148Z,1016.49
2019-01-11T02:10:33.156Z,1016.52
2019-01-11T02:11:33.166Z,1016.51
2019-01-11T02:12:33.176Z,1016.49
2019-01-11T02:13:33.188Z,1016.50
2019-01-11T02:14:33.198Z,1016.44
2019-01-11T02:15:33.208Z,1016.44
2019-01-11T02:16:33.220Z,1016.44
2019-01-11T02:17:33.229Z,1016.45
2019-01-11T02:18:33.241Z,1016.38
2019-01-11T02:19:33.269Z,1016.42
2019-01-11T02:20:33.263Z,1016.43
2019-01-11T02:21:33.272Z,1016.40
2019-01-11T02:22:33.281Z,1016.39
2019-01-11T02:23:33.293Z,1016.40
2019-01-11T02:24:33.305Z,1016.42
2019-01-11T02:25:33.314Z,1016.39
2019-01-11T02:26:33.325Z,1016.38
2019-01-11T02:27:33.340Z,1016.32
2019-01-11T02:28:33.345Z,1016.37
2019-01-11T02:29:33.355Z,1016.34
2019-01-11T02:30:33.364Z,1016.34
2019-01-11T02:31:33.377Z,1016.30
2019-01-11T02:32:33.386Z,1016.30
2019-01-11T02:33:33.397Z,1016.26
2019-01-11T02:34:33.410Z,1016.30
2019-01-11T02:35:33.420Z,1016.28
2019-01-11T02:36:33.430Z,1016.24
2019-01-11T02:37:33.467Z,1016.20
2019-01-11T02:38:33.451Z,1016.27
2019-01-11T02:39:33.461Z,1016.24
2019-01-11T02:40:33.471Z,1016.22
2019-01-11T02:41:33.481Z,1016.22
2019-01-11T02:42:33.492Z,1016.17
2019-01-11T02:43:33.501Z,1016.19
2019-01-11T02:44:33.513Z,1016.14
2019-01-11T02:45:33.523Z,1016.13
2019-01-11T02:46:33.532Z,1016.13
2019-01-11T02:47:33.544Z,1016.14
2019-01-11T02:48:33.555Z,1016.13
2019-01-11T02:49:39.814Z,1016.14
2019-01-11T02:50:33.573Z,1016.14
2019-01-11T02:51:33.586Z,1016.13
2019-01-11T02:52:33.597Z,1016.12
2019-01-11T02:53:33.607Z,1016.06
2019-01-11T02:54:33.616Z,1016.07
2019-01-11T02:55:33.629Z,1016.03
2019-01-11T02:56:33.646Z,1016.03
2019-01-11T02:57:33.650Z,1015.99
2019-01-11T02:58:33.657Z,1015.99
2019-01-11T02:59:33.671Z,1015.95
2019-01-11T03:00:33.692Z,1015.96
2019-01-11T03:01:33.694Z,1015.96
2019-01-11T03:02:33.701Z,1015.91
2019-01-11T03:03:33.714Z,1015.88
2019-01-11T03:04:33.729Z,1015.86
2019-01-11T03:05:33.729Z,1015.83
2019-01-11T03:06:33.743Z,1015.83
2019-01-11T03:07:33.755Z,1015.76
2019-01-11T03:08:33.770Z,1015.79
2019-01-11T03:09:33.776Z,1015.71
2019-01-11T03:10:33.784Z,1015.74
2019-01-11T03:11:33.795Z,1015.70
2019-01-11T03:12:33.805Z,1015.66
2019-01-11T03:13:33.819Z,1015.62
2019-01-11T03:14:33.827Z,1015.66
2019-01-11T03:15:33.836Z,1015.62
2019-01-11T03:16:33.849Z,1015.61
2019-01-11T03:17:33.859Z,1015.57
2019-01-11T03:18:33.867Z,1015.57
2019-01-11T03:19:33.878Z,1015.55
2019-01-11T03:20:33.892Z,1015.53
2019-01-11T03:21:33.902Z,1015.55
2019-01-11T03:22:33.914Z,1015.54
2019-01-11T03:23:33.921Z,1015.49
2019-01-11T03:24:33.933Z,1015.46
2019-01-11T03:25:33.942Z,1015.43
2019-01-11T03:26:33.955Z,1015.42
2019-01-11T03:27:33.964Z,1015.40
2019-01-11T03:28:33.975Z,1015.41
2019-01-11T03:29:34.711Z,1015.35
2019-01-11T03:30:33.995Z,1015.39
2019-01-11T03:31:34.008Z,1015.35
2019-01-11T03:32:34.017Z,1015.33
2019-01-11T03:33:34.030Z,1015.30
2019-01-11T03:34:34.084Z,1015.28
2019-01-11T03:35:34.048Z,1015.27
2019-01-11T03:36:34.060Z,1015.24
2019-01-11T03:37:34.070Z,1015.23
2019-01-11T03:38:34.087Z,1015.21
2019-01-11T03:39:34.090Z,1015.17
2019-01-11T03:40:34.102Z,1015.18
2019-01-11T03:41:34.111Z,1015.22
2019-01-11T03:42:34.120Z,1015.19
2019-01-11T03:43:34.132Z,1015.19
2019-01-11T03:44:34.153Z,1015.14
2019-01-11T03:45:34.156Z,1015.13
2019-01-11T03:46:34.168Z,1015.12
2019-01-11T03:47:34.176Z,1015.08
2019-01-11T03:48:34.184Z,1015.11
2019-01-11T03:49:34.197Z,1015.06
2019-01-11T03:50:34.208Z,1015.02
2019-01-11T03:51:34.217Z,1015.03
2019-01-11T03:52:34.234Z,1015.03
2019-01-11T03:53:34.238Z,1015.03
2019-01-11T03:54:34.247Z,1015.01
2019-01-11T03:55:34.259Z,1015.03
2019-01-11T03:56:34.270Z,1014.97
2019-01-11T03:57:34.280Z,1015.04
2019-01-11T03:58:34.289Z,1015.00
2019-01-11T03:59:34.299Z,1015.02
2019-01-11T04:00:34.310Z,1015.02
2019-01-11T04:01:34.320Z,1015.00
2019-01-11T04:02:34.333Z,1015.02
2019-01-11T04:03:34.341Z,1014.99
2019-01-11T04:04:34.354Z,1014.97
2019-01-11T04:05:34.363Z,1014.96
2019-01-11T04:06:34.374Z,1014.96
2019-01-11T04:07:34.386Z,1014.92
2019-01-11T04:08:34.403Z,1014.89
2019-01-11T04:09:34.405Z,1014.88
2019-01-11T04:10:34.453Z,1014.86
2019-01-11T04:11:34.427Z,1014.91
2019-01-11T04:12:34.437Z,1014.85
2019-01-11T04:13:34.444Z,1014.88
2019-01-11T04:14:34.455Z,1014.88
2019-01-11T04:15:34.466Z,1014.82
2019-01-11T04:16:34.479Z,1014.85
2019-01-11T04:17:34.489Z,1014.81
2019-01-11T04:18:34.495Z,1014.81
2019-01-11T04:19:34.508Z,1014.80
2019-01-11T04:20:34.520Z,1014.78
2019-01-11T04:21:34.531Z,1014.76
2019-01-11T04:22:34.539Z,1014.73
2019-01-11T04:23:34.549Z,1014.76
2019-01-11T04:24:34.811Z,1014.75
2019-01-11T04:25:34.569Z,1014.72
2019-01-11T04:26:34.580Z,1014.73
2019-01-11T04:27:34.594Z,1014.68
2019-01-11T04:28:34.609Z,1014.66
2019-01-11T04:29:34.702Z,1014.67
2019-01-11T04:30:34.690Z,1014.59
2019-01-11T04:31:34.683Z,1014.62
2019-01-11T04:32:34.691Z,1014.57
2019-01-11T04:33:34.699Z,1014.60
2019-01-11T04:34:34.692Z,1014.55
2019-01-11T04:35:34.746Z,1014.50
2019-01-11T04:36:34.747Z,1014.51
2019-01-11T04:37:34.742Z,1014.53
2019-01-11T04:38:34.745Z,1014.47
2019-01-11T04:39:35.001Z,1014.45
2019-01-11T04:40:34.785Z,1014.47
2019-01-11T04:41:34.751Z,1014.41
2019-01-11T04:42:34.770Z,1014.41
2019-01-11T04:43:34.755Z,1014.38
2019-01-11T04:44:34.868Z,1014.38
2019-01-11T04:45:34.779Z,1014.38
2019-01-11T04:46:34.789Z,1014.34
2019-01-11T04:47:34.800Z,1014.34
2019-01-11T04:48:34.816Z,1014.32
2019-01-11T04:49:34.820Z,1014.34
2019-01-11T04:50:34.831Z,1014.35
2019-01-11T04:51:34.842Z,1014.30
2019-01-11T04:52:34.851Z,1014.30
2019-01-11T04:53:34.862Z,1014.20
2019-01-11T04:54:34.872Z,1014.20
2019-01-11T04:55:34.882Z,1014.20
2019-01-11T04:56:34.897Z,1014.23
2019-01-11T04:57:34.904Z,1014.26
2019-01-11T04:58:34.912Z,1014.14
2019-01-11T04:59:34.923Z,1014.22
2019-01-11T05:00:34.935Z,1014.10
2019-01-11T05:01:34.944Z,1014.15
2019-01-11T05:02:34.955Z,1014.10
2019-01-11T05:03:34.965Z,1014.13
2019-01-11T05:04:34.976Z,1014.11
2019-01-11T05:05:34.988Z,1014.11
2019-01-11T05:06:34.998Z,1014.09
2019-01-11T05:07:35.005Z,1014.07
2019-01-11T05:08:35.016Z,1014.05
2019-01-11T05:09:35.024Z,1014.03
2019-01-11T05:10:35.040Z,1014.04
2019-01-11T05:11:35.046Z,1014.00
2019-01-11T05:12:35.058Z,1013.98
2019-01-11T05:13:35.069Z,1013.98
2019-01-11T05:14:35.082Z,1013.99
2019-01-11T05:15:35.090Z,1013.96
2019-01-11T05:16:39.462Z,1014.00
2019-01-11T05:17:35.111Z,1013.97
2019-01-11T05:18:35.124Z,1013.95
2019-01-11T05:19:35.131Z,1013.95
2019-01-11T05:20:35.140Z,1013.90
2019-01-11T05:21:35.150Z,1013.88
2019-01-11T05:22:35.159Z,1013.88
2019-01-11T05:23:35.172Z,1013.87
2019-01-11T05:24:35.183Z,1013.79
2019-01-11T05:25:35.193Z,1013.84
2019-01-11T05:26:35.202Z,1013.80
2019-01-11T05:27:35.213Z,1013.78
2019-01-11T05:28:35.223Z,1013.72
2019-01-11T05:29:35.235Z,1013.71
2019-01-11T05:30:35.242Z,1013.71
2019-01-11T05:31:35.253Z,1013.73
2019-01-11T05:32:35.262Z,1013.74
2019-01-11T05:33:35.273Z,1013.75
2019-01-11T05:34:35.282Z,1013.74
2019-01-11T05:35:35.296Z,1013.73
2019-01-11T05:36:35.304Z,1013.75
2019-01-11T05:37:35.313Z,1013.72
2019-01-11T05:38:35.321Z,1013.69
2019-01-11T05:39:35.335Z,1013.73
2019-01-11T05:40:35.344Z,1013.67
2019-01-11T05:41:35.352Z,1013.68
2019-01-11T05:42:35.362Z,1013.68
2019-01-11T05:43:35.371Z,1013.67
2019-01-11T05:44:35.384Z,1013.62
2019-01-11T05:45:35.396Z,1013.60
2019-01-11T05:46:35.404Z,1013.59
2019-01-11T05:47:35.415Z,1013.55
2019-01-11T05:48:35.426Z,1013.52
2019-01-11T05:49:35.435Z,1013.53
2019-01-11T05:50:35.444Z,1013.52
2019-01-11T05:51:35.457Z,1013.50
2019-01-11T05:52:35.466Z,1013.43
2019-01-11T05:53:35.477Z,1013.45
2019-01-11T05:54:35.486Z,1013.41
2019-01-11T05:55:35.497Z,1013.44
2019-01-11T05:56:35.512Z,1013.44
2019-01-11T05:57:35.516Z,1013.44
2019-01-11T05:58:35.523Z,1013.49
2019-01-11T05:59:35.536Z,1013.39
2019-01-11T06:00:35.544Z,1013.43
2019-01-11T06:01:35.557Z,1013.40
2019-01-11T06:02:35.565Z,1013.38
2019-01-11T06:03:35.578Z,1013.40
2019-01-11T06:04:35.601Z,1013.40
2019-01-11T06:05:35.595Z,1013.37
2019-01-11T06:06:35.605Z,1013.30
2019-01-11T06:07:35.625Z,1013.28
2019-01-11T06:08:35.628Z,1013.28
2019-01-11T06:09:35.635Z,1013.23
2019-01-11T06:10:35.644Z,1013.24
2019-01-11T06:11:35.656Z,1013.21
2019-01-11T06:12:35.664Z,1013.17
2019-01-11T06:13:35.675Z,1013.14
2019-01-11T06:14:35.684Z,1013.15
2019-01-11T06:15:35.693Z,1013.14
2019-01-11T06:16:35.706Z,1013.16
2019-01-11T06:17:35.716Z,1013.20
2019-01-11T06:18:35.725Z,1013.17
2019-01-11T06:19:35.735Z,1013.16
2019-01-11T06:20:35.748Z,1013.17
2019-01-11T06:21:35.755Z,1013.17
2019-01-11T06:22:35.767Z,1013.18
2019-01-11T06:23:35.774Z,1013.17
2019-01-11T06:24:35.785Z,1013.10
2019-01-11T06:25:35.794Z,1013.09
2019-01-11T06:26:35.803Z,1013.08
2019-01-11T06:27:35.815Z,1013.09
2019-01-11T06:28:35.825Z,1013.04
2019-01-11T06:29:35.836Z,1013.03
2019-01-11T06:30:35.843Z,1013.03
2019-01-11T06:31:35.854Z,1013.00
2019-01-11T06:32:35.865Z,1012.96
2019-01-11T06:33:35.874Z,1012.99
2019-01-11T06:34:35.885Z,1012.95
2019-01-11T06:35:35.893Z,1013.00
2019-01-11T06:36:35.905Z,1013.01
2019-01-11T06:37:35.914Z,1012.98
2019-01-11T06:38:35.924Z,1013.00
2019-01-11T06:39:35.935Z,1012.93
2019-01-11T06:40:35.946Z,1012.95
2019-01-11T06:41:35.956Z,1012.92
2019-01-11T06:42:35.965Z,1012.96
2019-01-11T06:43:35.976Z,1012.95
2019-01-11T06:44:39.048Z,1012.88
2019-01-11T06:45:35.995Z,1012.88
2019-01-11T06:46:36.005Z,1012.88
2019-01-11T06:47:36.014Z,1012.88
2019-01-11T06:48:36.025Z,1012.82
2019-01-11T06:49:36.035Z,1012.80
2019-01-11T06:50:36.604Z,1012.83
2019-01-11T06:51:36.054Z,1012.80
2019-01-11T06:52:36.064Z,1012.82
2019-01-11T06:53:36.076Z,1012.81
2019-01-11T06:54:36.086Z,1012.82
2019-01-11T06:55:36.093Z,1012.79
2019-01-11T06:56:36.105Z,1012.79
2019-01-11T06:57:36.116Z,1012.82
2019-01-11T06:58:36.125Z,1012.79
2019-01-11T06:59:36.135Z,1012.77
2019-01-11T07:00:36.146Z,1012.75
2019-01-11T07:01:36.156Z,1012.70
2019-01-11T07:02:36.164Z,1012.77
2019-01-11T07:03:36.177Z,1012.73
2019-01-11T07:04:36.186Z,1012.76
2019-01-11T07:05:36.195Z,1012.77
2019-01-11T07:06:36.204Z,1012.75
2019-01-11T07:07:36.215Z,1012.75
2019-01-11T07:08:36.225Z,1012.77
2019-01-11T07:09:36.235Z,1012.78
2019-01-11T07:10:36.245Z,1012.78
2019-01-11T07:11:36.254Z,1012.73
2019-01-11T07:12:36.266Z,1012.76
2019-01-11T07:13:36.273Z,1012.76
2019-01-11T07:14:36.285Z,1012.76
2019-01-11T07:15:36.295Z,1012.75
2019-01-11T07:16:36.304Z,1012.73
2019-01-11T07:17:36.315Z,1012.73
2019-01-11T07:18:36.324Z,1012.80
2019-01-11T07:19:36.336Z,1012.71
2019-01-11T07:20:42.693Z,1012.76
2019-01-11T07:21:36.356Z,1012.74
2019-01-11T07:22:36.364Z,1012.71
2019-01-11T07:23:36.374Z,1012.71
2019-01-11T07:24:36.390Z,1012.65
2019-01-11T07:25:36.447Z,1012.72
2019-01-11T07:26:36.477Z,1012.77
2019-01-11T07:27:36.469Z,1012.68
2019-01-11T07:28:36.473Z,1012.72
2019-01-11T07:29:36.477Z,1012.61
2019-01-11T07:30:36.468Z,1012.68
2019-01-11T07:31:36.537Z,1012.72
2019-01-11T07:32:36.535Z,1012.70
2019-01-11T07:33:36.532Z,1012.70
2019-01-11T07:34:36.546Z,1012.68
2019-01-11T07:35:36.562Z,1012.75
2019-01-11T07:36:36.535Z,1012.78
2019-01-11T07:37:36.522Z,1012.74
2019-01-11T07:38:36.524Z,1012.71
2019-01-11T07:39:36.537Z,1012.73
2019-01-11T07:40:36.543Z,1012.72
2019-01-11T07:41:36.552Z,1012.64
2019-01-11T07:42:36.561Z,1012.64
2019-01-11T07:43:36.574Z,1012.65
2019-01-11T07:44:36.582Z,1012.63
2019-01-11T07:45:36.594Z,1012.63
2019-01-11T07:46:36.604Z,1012.63
2019-01-11T07:47:36.613Z,1012.64
2019-01-11T07:48:36.623Z,1012.66
2019-01-11T07:49:36.630Z,1012.63
2019-01-11T07:50:36.640Z,1012.60
2019-01-11T07:51:36.652Z,1012.58
2019-01-11T07:52:36.661Z,1012.58
2019-01-11T07:53:36.671Z,1012.56
2019-01-11T07:54:36.682Z,1012.64
2019-01-11T07:55:36.689Z,1012.61
2019-01-11T07:56:36.707Z,1012.68
2019-01-11T07:57:36.710Z,1012.62
2019-01-11T07:58:36.720Z,1012.63
2019-01-11T07:59:36.730Z,1012.57
2019-01-11T08:00:36.740Z,1012.61
2019-01-11T08:01:36.751Z,1012.58
2019-01-11T08:02:36.761Z,1012.60
2019-01-11T08:03:36.770Z,1012.61
2019-01-11T08:04:36.781Z,1012.63
2019-01-11T08:05:36.793Z,1012.56
2019-01-11T08:06:36.800Z,1012.53
2019-01-11T08:07:36.812Z,1012.56
2019-01-11T08:08:36.821Z,1012.55
2019-01-11T08:09:36.831Z,1012.54
2019-01-11T08:10:36.840Z,1012.50
2019-01-11T08:11:36.850Z,1012.53
2019-01-11T08:12:36.860Z,1012.49
2019-01-11T08:13:36.871Z,1012.45
2019-01-11T08:14:36.879Z,1012.46
2019-01-11T08:15:36.892Z,1012.41
2019-01-11T08:16:36.899Z,1012.43
2019-01-11T08:17:36.910Z,1012.41
2019-01-11T08:18:36.919Z,1012.44
2019-01-11T08:19:36.930Z,1012.40
2019-01-11T08:20:36.938Z,1012.38
2019-01-11T08:21:36.953Z,1012.32
2019-01-11T08:22:36.958Z,1012.32
2019-01-11T08:23:36.970Z,1012.35
2019-01-11T08:24:36.979Z,1012.29
2019-01-11T08:25:36.992Z,1012.29
2019-01-11T08:26:37.001Z,1012.25
2019-01-11T08:27:37.011Z,1012.28
2019-01-11T08:28:37.019Z,1012.26
2019-01-11T08:29:37.031Z,1012.24
2019-01-11T08:30:37.039Z,1012.25
2019-01-11T08:31:37.050Z,1012.19
2019-01-11T08:32:37.065Z,1012.19
2019-01-11T08:33:37.070Z,1012.17
2019-01-11T08:34:37.082Z,1012.17
2019-01-11T08:35:37.148Z,1012.17
2019-01-11T08:36:37.101Z,1012.13
2019-01-11T08:37:37.110Z,1012.18
2019-01-11T08:38:37.125Z,1012.14
2019-01-11T08:39:37.134Z,1012.10
2019-01-11T08:40:37.142Z,1012.09
2019-01-11T08:41:37.152Z,1012.07
2019-01-11T08:42:37.160Z,1012.13
2019-01-11T08:43:37.170Z,1012.18
2019-01-11T08:44:37.181Z,1012.14
2019-01-11T08:45:37.191Z,1012.17
2019-01-11T08:46:37.202Z,1012.15
2019-01-11T08:47:37.213Z,1012.13
2019-01-11T08:48:37.222Z,1012.11
2019-01-11T08:49:37.234Z,1012.10
2019-01-11T08:50:37.243Z,1012.11
2019-01-11T08:51:37.252Z,1012.15
2019-01-11T08:52:37.263Z,1012.10
2019-01-11T08:53:37.275Z,1012.01
2019-01-11T08:54:37.284Z,1012.01
2019-01-11T08:55:37.294Z,1012.00
2019-01-11T08:56:37.304Z,1012.02
2019-01-11T08:57:37.316Z,1012.03
2019-01-11T08:58:37.331Z,1012.00
2019-01-11T08:59:37.335Z,1011.98
2019-01-11T09:00:37.347Z,1011.98
2019-01-11T09:01:37.360Z,1011.93
2019-01-11T09:02:37.409Z,1011.91
2019-01-11T09:03:37.379Z,1011.95
2019-01-11T09:04:37.389Z,1011.95
2019-01-11T09:05:37.398Z,1011.90
2019-01-11T09:06:37.409Z,1011.90
2019-01-11T09:07:37.421Z,1011.91
2019-01-11T09:08:37.429Z,1011.87
2019-01-11T09:09:37.441Z,1011.75
2019-01-11T09:10:37.450Z,1011.76
2019-01-11T09:11:37.463Z,1011.77
2019-01-11T09:12:37.473Z,1011.70
2019-01-11T09:13:37.481Z,1011.71
2019-01-11T09:14:37.493Z,1011.73
2019-01-11T09:15:37.501Z,1011.71
2019-01-11T09:16:37.512Z,1011.74
2019-01-11T09:17:37.530Z,1011.75
2019-01-11T09:18:37.535Z,1011.76
2019-01-11T09:19:37.546Z,1011.84
2019-01-11T09:20:37.557Z,1011.80
2019-01-11T09:21:41.571Z,1011.79
2019-01-11T09:22:37.576Z,1011.81
2019-01-11T09:23:37.586Z,1011.75
2019-01-11T09:24:37.598Z,1011.80
2019-01-11T09:25:37.607Z,1011.75
2019-01-11T09:26:37.617Z,1011.75
2019-01-11T09:27:37.628Z,1011.79
2019-01-11T09:28:37.637Z,1011.82
2019-01-11T09:29:37.653Z,1011.81
2019-01-11T09:30:37.658Z,1011.74
2019-01-11T09:31:37.672Z,1011.68
2019-01-11T09:32:37.683Z,1011.70
2019-01-11T09:33:37.690Z,1011.65
2019-01-11T09:34:37.703Z,1011.62
2019-01-11T09:35:37.710Z,1011.57
2019-01-11T09:36:37.723Z,1011.54
2019-01-11T09:37:37.732Z,1011.54
2019-01-11T09:38:37.746Z,1011.58
2019-01-11T09:39:37.755Z,1011.55
2019-01-11T09:40:37.765Z,1011.57
2019-01-11T09:41:37.775Z,1011.53
2019-01-11T09:42:37.785Z,1011.50
2019-01-11T09:43:37.794Z,1011.47
2019-01-11T09:44:37.811Z,1011.47
2019-01-11T09:45:37.817Z,1011.47
2019-01-11T09:46:37.825Z,1011.42
2019-01-11T09:47:37.839Z,1011.42
2019-01-11T09:48:37.847Z,1011.49
2019-01-11T09:49:37.859Z,1011.40
2019-01-11T09:50:37.871Z,1011.37
2019-01-11T09:51:37.882Z,1011.40
2019-01-11T09:52:37.901Z,1011.34
2019-01-11T09:53:37.901Z,1011.38
2019-01-11T09:54:37.913Z,1011.33
2019-01-11T09:55:37.929Z,1011.34
2019-01-11T09:56:37.933Z,1011.38
2019-01-11T09:57:37.946Z,1011.43
2019-01-11T09:58:37.955Z,1011.37
2019-01-11T09:59:37.968Z,1011.35
2019-01-11T10:00:37.976Z,1011.37
2019-01-11T10:01:37.995Z,1011.32
2019-01-11T10:02:38.065Z,1011.28
2019-01-11T10:03:38.016Z,1011.32
2019-01-11T10:04:38.020Z,1011.32
2019-01-11T10:05:38.037Z,1011.31
2019-01-11T10:06:38.039Z,1011.26
2019-01-11T10:07:38.056Z,1011.23
2019-01-11T10:08:38.059Z,1011.26
2019-01-11T10:09:38.074Z,1011.25
2019-01-11T10:10:38.083Z,1011.24
2019-01-11T10:11:38.096Z,1011.21
2019-01-11T10:12:38.105Z,1011.20
2019-01-11T10:13:38.118Z,1011.19
2019-01-11T10:14:38.127Z,1011.17
2019-01-11T10:15:38.138Z,1011.15
2019-01-11T10:16:38.147Z,1011.13
2019-01-11T10:17:38.160Z,1011.15
2019-01-11T10:18:38.182Z,1011.06
2019-01-11T10:19:38.262Z,1011.09
2019-01-11T10:20:38.272Z,1011.08
2019-01-11T10:21:38.259Z,1011.03
2019-01-11T10:22:38.257Z,1011.02
2019-01-11T10:23:38.328Z,1010.96
2019-01-11T10:24:38.321Z,1010.95
2019-01-11T10:25:38.320Z,1010.90
2019-01-11T10:26:38.319Z,1010.87
2019-01-11T10:27:38.322Z,1010.93
2019-01-11T10:28:38.318Z,1010.85
2019-01-11T10:29:38.332Z,1010.83
2019-01-11T10:30:38.313Z,1010.86
2019-01-11T10:31:38.317Z,1010.84
2019-01-11T10:32:38.325Z,1010.81
2019-01-11T10:33:38.337Z,1010.80
2019-01-11T10:34:38.346Z,1010.71
2019-01-11T10:35:38.356Z,1010.73
2019-01-11T10:36:38.367Z,1010.75
2019-01-11T10:37:38.379Z,1010.71
2019-01-11T10:38:38.389Z,1010.69
2019-01-11T10:39:38.398Z,1010.61
2019-01-11T10:40:38.413Z,1010.63
2019-01-11T10:41:38.422Z,1010.59
2019-01-11T10:42:39.633Z,1010.55
2019-01-11T10:43:38.484Z,1010.55
2019-01-11T10:44:38.455Z,1010.57
2019-01-11T10:45:38.465Z,1010.56
2019-01-11T10:46:38.476Z,1010.56
2019-01-11T10:47:38.487Z,1010.53
2019-01-11T10:48:38.496Z,1010.51
2019-01-11T10:49:38.542Z,1010.52
2019-01-11T10:50:38.520Z,1010.51
2019-01-11T10:51:38.531Z,1010.49
2019-01-11T10:52:38.544Z,1010.47
2019-01-11T10:53:38.554Z,1010.47
2019-01-11T10:54:38.565Z,1010.44
2019-01-11T10:55:38.579Z,1010.44
2019-01-11T10:56:38.589Z,1010.47
2019-01-11T10:57:38.599Z,1010.45
2019-01-11T10:58:38.608Z,1010.41
2019-01-11T10:59:38.622Z,1010.44
2019-01-11T11:00:38.633Z,1010.39
2019-01-11T11:01:38.643Z,1010.39
2019-01-11T11:02:38.654Z,1010.40
2019-01-11T11:03:38.665Z,1010.38
2019-01-11T11:04:38.679Z,1010.37
2019-01-11T11:05:38.689Z,1010.38
2019-01-11T11:06:38.700Z,1010.39
2019-01-11T11:07:38.714Z,1010.38
2019-01-11T11:08:38.725Z,1010.38
2019-01-11T11:09:38.734Z,1010.35
2019-01-11T11:10:38.744Z,1010.35
2019-01-11T11:11:38.760Z,1010.34
2019-01-11T11:12:38.768Z,1010.28
2019-01-11T11:13:38.780Z,1010.30
2019-01-11T11:14:38.791Z,1010.30
2019-01-11T11:15:38.805Z,1010.31
2019-01-11T11:16:38.813Z,1010.24
2019-01-11T11:17:38.825Z,1010.24
2019-01-11T11:18:38.835Z,1010.22
2019-01-11T11:19:38.846Z,1010.15
2019-01-11T11:20:38.860Z,1010.16
2019-01-11T11:21:38.869Z,1010.16
2019-01-11T11:22:38.879Z,1010.15
2019-01-11T11:23:38.889Z,1010.09
2019-01-11T11:24:38.910Z,1010.10
2019-01-11T11:25:38.916Z,1010.08
2019-01-11T11:26:38.927Z,1010.08
2019-01-11T11:27:38.937Z,1009.98
2019-01-11T11:28:38.948Z,1009.99
2019-01-11T11:29:38.963Z,1009.99
2019-01-11T11:30:38.972Z,1009.97
2019-01-11T11:31:38.986Z,1009.90
2019-01-11T11:32:38.995Z,1009.91
2019-01-11T11:33:39.007Z,1009.83
2019-01-11T11:34:39.017Z,1009.83
2019-01-11T11:35:39.030Z,1009.82
2019-01-11T11:36:39.040Z,1009.78
2019-01-11T11:37:39.051Z,1009.76
2019-01-11T11:38:39.063Z,1009.73
2019-01-11T11:39:39.075Z,1009.76
2019-01-11T11:40:39.085Z,1009.75
2019-01-11T11:41:39.099Z,1009.72
2019-01-11T11:42:39.110Z,1009.71
2019-01-11T11:43:39.119Z,1009.68
2019-01-11T11:44:39.130Z,1009.69
2019-01-11T11:45:39.142Z,1009.73
2019-01-11T11:46:39.156Z,1009.68
2019-01-11T11:47:39.165Z,1009.65
2019-01-11T11:48:39.174Z,1009.63
2019-01-11T11:49:39.191Z,1009.61
2019-01-11T11:50:39.200Z,1009.62
2019-01-11T11:51:41.432Z,1009.62
2019-01-11T11:52:39.227Z,1009.61
2019-01-11T11:53:39.236Z,1009.50
2019-01-11T11:54:39.247Z,1009.47
2019-01-11T11:55:39.257Z,1009.48
2019-01-11T11:56:39.270Z,1009.44
2019-01-11T11:57:39.280Z,1009.43
2019-01-11T11:58:39.292Z,1009.28
2019-01-11T11:59:39.303Z,1009.31
2019-01-11T12:00:39.315Z,1009.28
2019-01-11T12:01:39.327Z,1009.29
2019-01-11T12:02:39.337Z,1009.28
2019-01-11T12:03:39.350Z,1009.28
2019-01-11T12:04:39.363Z,1009.27
2019-01-11T12:05:39.373Z,1009.29